Terminal Aerodrome Forecast
Issued by NWS Cleveland, OH

Home | Current Version | Previous Version | Graphics & Text | Print | Product List | Glossary On
Versions: 1 2 3 4 5 6 7 8 9 10 11 12 13 14
830
FTUS41 KCLE 132330
TAFERI
TAF
KERI 132330Z 1400/1424 32004KT P6SM SCT250
     FM140400 VRB03KT P6SM FEW250
     FM141700 03004KT P6SM FEW045 BKN250=

USA.gov is the U.S. government's official web portal to all federal, state and local government web resources and services.